createdAt,value
2022-11-09T00:02:12.459Z,73.85
2022-11-09T00:05:15.213Z,71.03
2022-11-09T00:08:17.663Z,67.85
2022-11-09T00:11:20.685Z,56.72
2022-11-09T00:14:23.278Z,68.60
2022-11-09T00:17:25.999Z,65.28
2022-11-09T00:20:28.730Z,70.15
2022-11-09T00:23:31.787Z,67.18
2022-11-09T00:26:34.237Z,67.70
2022-11-09T00:29:36.998Z,65.40
2022-11-09T00:32:39.472Z,57.00
2022-11-09T00:35:42.320Z,54.95
2022-11-09T00:38:49.028Z,68.15
2022-11-09T00:41:51.816Z,58.53
2022-11-09T00:44:54.458Z,60.23
2022-11-09T00:47:57.202Z,69.97
2022-11-09T00:50:59.702Z,63.90
2022-11-09T00:54:02.540Z,67.47
2022-11-09T00:57:05.082Z,73.12
2022-11-09T01:00:08.649Z,64.17
2022-11-09T01:03:11.248Z,50.70
2022-11-09T01:06:16.998Z,54.13
2022-11-09T01:09:19.542Z,64.22
2022-11-09T01:12:22.320Z,61.90
2022-11-09T01:15:26.959Z,69.37
2022-11-09T01:18:31.744Z,64.00
2022-11-09T01:21:34.188Z,68.90
2022-11-09T01:24:37.044Z,32.38
2022-11-09T01:27:39.481Z,68.65
2022-11-09T01:30:43.211Z,62.57
2022-11-09T01:33:46.025Z,64.80
2022-11-09T01:36:51.983Z,65.07
2022-11-09T01:39:54.476Z,62.40
2022-11-09T01:42:57.644Z,69.15
2022-11-09T01:46:23.950Z,60.93
2022-11-09T01:49:32.691Z,63.00
2022-11-09T01:52:37.528Z,70.70
2022-11-09T01:55:44.300Z,62.22
2022-11-09T01:59:02.115Z,64.57
2022-11-09T02:02:05.366Z,57.23
2022-11-09T02:05:11.093Z,61.33
2022-11-09T02:08:16.411Z,71.15
2022-11-09T02:11:20.895Z,59.42
2022-11-09T02:14:24.367Z,58.20
2022-11-09T02:17:27.224Z,62.40
2022-11-09T02:20:30.103Z,64.25
2022-11-09T02:23:34.257Z,57.03
2022-11-09T02:26:39.372Z,59.55
2022-11-09T02:29:44.467Z,61.35
2022-11-09T02:32:47.282Z,61.70
2022-11-09T02:35:50.128Z,59.00
2022-11-09T02:38:54.832Z,59.63
2022-11-09T02:42:18.348Z,64.32
2022-11-09T02:45:24.124Z,57.67
2022-11-09T02:48:27.130Z,62.03
2022-11-09T02:51:32.840Z,61.08
2022-11-09T02:54:35.907Z,55.72
2022-11-09T02:57:40.392Z,54.80
2022-11-09T03:00:45.518Z,57.30
2022-11-09T03:03:48.434Z,61.30
2022-11-09T03:06:51.337Z,58.03
2022-11-09T03:09:54.147Z,41.72
2022-11-09T03:12:57.496Z,63.78
2022-11-09T03:16:07.217Z,57.90
2022-11-09T03:19:11.780Z,61.77
2022-11-09T03:22:14.624Z,56.92
2022-11-09T03:25:20.787Z,55.15
2022-11-09T03:28:24.570Z,57.55
2022-11-09T03:31:28.058Z,52.78
2022-11-09T03:34:31.537Z,45.43
2022-11-09T03:37:34.681Z,47.90
2022-11-09T03:40:37.262Z,51.58
2022-11-09T03:43:40.038Z,58.38
2022-11-09T03:46:42.483Z,51.60
2022-11-09T03:49:45.527Z,45.97
2022-11-09T03:52:48.019Z,56.28
2022-11-09T03:55:50.768Z,57.45
2022-11-09T03:58:53.398Z,52.17
2022-11-09T04:01:56.248Z,41.53
2022-11-09T04:04:59.169Z,58.40
2022-11-09T04:08:01.709Z,50.42
2022-11-09T04:11:04.490Z,57.88
2022-11-09T04:14:06.965Z,55.50
2022-11-09T04:17:09.709Z,42.78
2022-11-09T04:20:12.806Z,56.67
2022-11-09T04:23:15.637Z,53.60
2022-11-09T04:26:18.131Z,51.15
2022-11-09T04:29:21.004Z,47.45
2022-11-09T04:32:23.690Z,56.03
2022-11-09T04:35:28.099Z,52.30
2022-11-09T04:38:30.874Z,39.38
2022-11-09T04:41:33.619Z,53.53
2022-11-09T04:44:36.122Z,52.42
2022-11-09T04:47:38.864Z,55.65
2022-11-09T04:50:41.334Z,51.40
2022-11-09T04:53:45.324Z,53.50
2022-11-09T04:56:47.824Z,51.60
2022-11-09T04:59:50.600Z,53.85
2022-11-09T05:02:53.162Z,56.45
2022-11-09T05:05:55.881Z,54.90
2022-11-09T05:08:59.609Z,54.13
2022-11-09T05:12:02.321Z,52.75
2022-11-09T05:15:05.100Z,41.95
2022-11-09T05:18:08.642Z,48.15
2022-11-09T05:21:11.552Z,31.70
2022-11-09T05:24:14.344Z,51.70
2022-11-09T05:27:16.771Z,56.00
2022-11-09T05:30:20.065Z,45.65
2022-11-09T05:33:22.868Z,51.60
2022-11-09T05:36:26.653Z,41.63
2022-11-09T05:39:29.130Z,45.80
2022-11-09T05:42:31.916Z,52.58
2022-11-09T05:45:43.320Z,56.83
2022-11-09T05:48:46.807Z,52.17
2022-11-09T05:51:49.504Z,52.63
2022-11-09T05:54:52.208Z,49.08
2022-11-09T05:57:55.097Z,43.95
2022-11-09T06:00:59.859Z,45.03
2022-11-09T06:04:02.591Z,50.97
2022-11-09T06:07:05.176Z,48.93
2022-11-09T06:10:09.380Z,45.88
2022-11-09T06:13:11.882Z,47.92
2022-11-09T06:16:14.673Z,46.03
2022-11-09T06:19:17.460Z,49.90
2022-11-09T06:22:20.345Z,37.43
2022-11-09T06:25:22.988Z,48.10
2022-11-09T06:28:26.325Z,45.17
2022-11-09T06:31:28.971Z,44.25
2022-11-09T06:34:31.698Z,46.22
2022-11-09T06:37:34.357Z,43.53
2022-11-09T06:40:37.336Z,46.75
2022-11-09T06:43:40.630Z,38.63
2022-11-09T06:46:43.414Z,43.45
2022-11-09T06:49:45.903Z,45.53
2022-11-09T06:52:48.796Z,28.53
2022-11-09T06:55:51.411Z,48.33
2022-11-09T06:58:54.575Z,38.33
2022-11-09T07:02:01.254Z,35.05
2022-11-09T07:05:04.821Z,29.30
2022-11-09T07:08:08.103Z,38.43
2022-11-09T07:11:13.672Z,43.55
2022-11-09T07:14:16.461Z,41.13
2022-11-09T07:17:19.289Z,40.67
2022-11-09T07:20:21.769Z,43.85
2022-11-09T07:23:25.088Z,42.07
2022-11-09T07:26:27.591Z,34.40
2022-11-09T07:29:30.521Z,40.58
2022-11-09T07:33:06.997Z,43.92
2022-11-09T07:35:59.114Z,38.15
2022-11-09T07:39:01.707Z,39.17
2022-11-09T07:42:04.684Z,43.83
2022-11-09T07:45:08.071Z,44.35
2022-11-09T07:48:12.501Z,35.33
2022-11-09T07:51:15.247Z,39.08
2022-11-09T07:54:18.222Z,41.33
2022-11-09T07:57:20.822Z,42.72
2022-11-09T08:00:24.252Z,42.03
2022-11-09T08:03:27.399Z,34.28
2022-11-09T08:06:30.076Z,35.17
2022-11-09T08:09:33.143Z,38.17
2022-11-09T08:12:37.469Z,38.05
2022-11-09T08:15:42.950Z,43.75
2022-11-09T08:18:46.856Z,38.75
2022-11-09T08:21:50.634Z,21.52
2022-11-09T08:24:53.765Z,43.70
2022-11-09T08:27:57.205Z,39.08
2022-11-09T08:31:03.955Z,41.70
2022-11-09T08:34:06.879Z,37.78
2022-11-09T08:37:09.520Z,41.40
2022-11-09T08:40:13.218Z,37.87
2022-11-09T08:43:16.380Z,43.25
2022-11-09T08:46:19.379Z,42.53
2022-11-09T08:49:22.008Z,41.88
2022-11-09T08:52:25.134Z,44.65
2022-11-09T08:55:27.849Z,41.03
2022-11-09T08:58:30.742Z,43.38
2022-11-09T09:01:33.778Z,40.72
2022-11-09T09:04:36.917Z,42.83
2022-11-09T09:07:39.724Z,43.05
2022-11-09T09:10:43.639Z,42.87
2022-11-09T09:13:46.647Z,38.67
2022-11-09T09:16:49.667Z,38.78
2022-11-09T09:19:52.343Z,42.30
2022-11-09T09:22:59.283Z,37.85
2022-11-09T09:26:02.117Z,39.20
2022-11-09T09:29:05.605Z,31.08
2022-11-09T09:32:08.491Z,39.63
2022-11-09T09:35:12.010Z,38.28
2022-11-09T09:38:14.705Z,38.42
2022-11-09T09:41:41.863Z,39.60
2022-11-09T09:44:49.633Z,41.13
2022-11-09T09:48:18.233Z,38.13
2022-11-09T09:51:38.725Z,31.75
2022-11-09T09:54:43.982Z,32.53
2022-11-09T09:57:51.357Z,29.63
2022-11-09T10:01:16.210Z,36.05
2022-11-09T10:04:25.589Z,38.45
2022-11-09T10:07:33.971Z,30.05
2022-11-09T10:11:15.078Z,36.40
2022-11-09T10:14:40.838Z,36.80
2022-11-09T10:17:52.721Z,34.47
2022-11-09T10:21:26.348Z,32.55
2022-11-09T10:24:48.728Z,32.35
2022-11-09T10:28:04.966Z,31.42
2022-11-09T10:31:15.731Z,33.20
2022-11-09T10:34:23.700Z,34.80
2022-11-09T10:37:32.632Z,33.35
2022-11-09T10:40:40.613Z,33.63
2022-11-09T10:44:01.936Z,31.60
2022-11-09T10:47:24.762Z,30.17
2022-11-09T10:50:54.100Z,34.65
2022-11-09T10:54:15.293Z,32.72
2022-11-09T10:57:36.289Z,31.55
2022-11-09T11:01:08.129Z,36.53
2022-11-09T11:04:29.780Z,35.50
2022-11-09T11:07:50.864Z,34.75
2022-11-09T11:11:37.734Z,35.60
2022-11-09T11:14:59.218Z,33.35
2022-11-09T11:18:30.371Z,30.20
2022-11-09T11:22:11.703Z,36.00
2022-11-09T11:25:32.814Z,41.78
2022-11-09T11:29:00.969Z,38.70
2022-11-09T11:32:23.715Z,35.63
2022-11-09T11:36:02.066Z,36.08
2022-11-09T11:39:42.039Z,35.13
2022-11-09T11:43:54.373Z,37.35
2022-11-09T11:47:26.474Z,29.08
2022-11-09T11:51:02.973Z,31.20
2022-11-09T11:54:49.884Z,35.20
2022-11-09T11:58:34.118Z,37.43
2022-11-09T12:02:48.297Z,43.17
2022-11-09T12:06:18.125Z,39.55
2022-11-09T12:10:09.030Z,41.50
2022-11-09T12:13:49.501Z,38.40
2022-11-09T12:17:22.821Z,33.87
2022-11-09T12:20:58.712Z,33.55
2022-11-09T12:24:28.241Z,33.35
2022-11-09T12:28:08.278Z,39.38
2022-11-09T12:31:47.944Z,38.13
2022-11-09T12:35:18.885Z,34.33
2022-11-09T12:39:05.805Z,32.75
2022-11-09T12:42:32.218Z,38.83
2022-11-09T12:45:54.109Z,38.60
2022-11-09T12:49:43.935Z,34.50
2022-11-09T12:53:05.603Z,37.07
2022-11-09T12:56:35.214Z,34.08
2022-11-09T12:59:58.283Z,33.17
2022-11-09T13:03:25.304Z,38.95
2022-11-09T13:07:09.556Z,41.03
2022-11-09T13:10:36.938Z,32.40
2022-11-09T13:14:22.843Z,35.60
2022-11-09T13:17:55.976Z,34.92
2022-11-09T13:21:37.502Z,35.70
2022-11-09T13:25:00.193Z,33.60
2022-11-09T13:28:33.122Z,34.17
2022-11-09T13:32:09.088Z,36.70
2022-11-09T13:35:42.641Z,37.90
2022-11-09T13:39:23.596Z,38.15
2022-11-09T13:42:44.576Z,36.10
2022-11-09T13:46:26.526Z,35.63
2022-11-09T13:49:49.881Z,33.10
2022-11-09T13:53:50.942Z,36.65
2022-11-09T13:57:11.639Z,35.47
2022-11-09T14:00:32.591Z,34.70
2022-11-09T14:03:53.546Z,33.43
2022-11-09T14:07:24.806Z,35.17
2022-11-09T14:11:00.113Z,35.50
2022-11-09T14:14:42.161Z,34.72
2022-11-09T14:18:40.220Z,39.15
2022-11-09T14:22:01.688Z,38.17
2022-11-09T14:25:24.200Z,37.55
2022-11-09T14:28:45.011Z,40.45
2022-11-09T14:32:25.868Z,38.08
2022-11-09T14:35:46.763Z,37.50
2022-11-09T14:39:21.155Z,41.37
2022-11-09T14:42:46.923Z,40.33
2022-11-09T14:46:17.240Z,34.33
2022-11-09T14:49:38.576Z,36.08
2022-11-09T14:53:03.400Z,33.90
2022-11-09T14:56:24.734Z,42.27
2022-11-09T14:59:45.894Z,58.22
2022-11-09T15:03:29.663Z,47.60
2022-11-09T15:06:53.569Z,41.95
2022-11-09T15:10:20.866Z,39.38
2022-11-09T15:13:42.088Z,43.03
2022-11-09T15:17:08.072Z,43.53
2022-11-09T15:20:32.426Z,47.90
2022-11-09T15:24:10.507Z,48.40
2022-11-09T15:27:34.534Z,46.63
2022-11-09T15:30:55.167Z,52.70
2022-11-09T15:34:23.256Z,46.65
2022-11-09T15:37:44.381Z,52.40
2022-11-09T15:41:18.718Z,49.67
2022-11-09T15:44:39.978Z,53.13
2022-11-09T15:48:01.699Z,49.90
2022-11-09T15:51:22.830Z,47.10
2022-11-09T15:54:46.733Z,42.17
2022-11-09T15:58:12.794Z,35.13
2022-11-09T16:01:33.753Z,38.45
2022-11-09T16:04:54.834Z,38.10
2022-11-09T16:08:15.713Z,29.77
2022-11-09T16:11:37.123Z,32.40
2022-11-09T16:14:58.698Z,27.48
2022-11-09T16:18:25.646Z,33.45
2022-11-09T16:21:47.171Z,29.23
2022-11-09T16:25:09.982Z,32.13
2022-11-09T16:28:30.950Z,45.15
2022-11-09T16:31:52.675Z,43.58
2022-11-09T16:35:29.436Z,44.17
2022-11-09T16:38:53.269Z,43.30
2022-11-09T16:42:14.980Z,33.58
2022-11-09T16:45:36.608Z,36.58
2022-11-09T16:49:01.223Z,40.20
2022-11-09T16:52:23.233Z,44.25
2022-11-09T16:55:44.561Z,41.00
2022-11-09T16:59:05.840Z,40.63
2022-11-09T17:02:27.227Z,35.40
2022-11-09T17:05:48.133Z,34.17
2022-11-09T17:09:08.858Z,35.72
2022-11-09T17:12:31.055Z,33.43
2022-11-09T17:15:53.403Z,37.08
2022-11-09T17:19:14.704Z,38.90
2022-11-09T17:22:35.782Z,38.63
2022-11-09T17:25:58.709Z,37.30
2022-11-09T17:29:19.912Z,41.37
2022-11-09T17:32:41.103Z,40.28
2022-11-09T17:36:05.288Z,40.15
2022-11-09T17:39:26.999Z,33.88
2022-11-09T17:42:48.482Z,39.60
2022-11-09T17:46:14.910Z,42.13
2022-11-09T17:49:35.919Z,45.20
2022-11-09T17:52:57.398Z,35.95
2022-11-09T17:56:18.529Z,33.85
2022-11-09T17:59:39.313Z,35.63
2022-11-09T18:03:00.495Z,39.10
2022-11-09T18:06:22.828Z,42.45
2022-11-09T18:09:43.830Z,38.78
2022-11-09T18:13:05.953Z,36.88
2022-11-09T18:16:28.247Z,37.63
2022-11-09T18:19:49.458Z,38.70
2022-11-09T18:23:11.156Z,38.88
2022-11-09T18:26:32.931Z,33.97
2022-11-09T18:29:56.276Z,34.95
2022-11-09T18:33:17.577Z,32.78
2022-11-09T18:36:38.644Z,40.27
2022-11-09T18:39:59.744Z,36.55
2022-11-09T18:43:21.302Z,34.92
2022-11-09T18:46:42.652Z,39.55
2022-11-09T18:50:04.224Z,33.72
2022-11-09T18:53:33.021Z,38.47
2022-11-09T18:56:54.274Z,39.58
2022-11-09T19:00:15.914Z,36.88
2022-11-09T19:03:37.232Z,31.20
2022-11-09T19:06:58.404Z,32.00
2022-11-09T19:10:20.374Z,33.20
2022-11-09T19:13:42.233Z,32.00
2022-11-09T19:17:03.614Z,32.03
2022-11-09T19:20:24.828Z,35.25
2022-11-09T19:23:46.031Z,36.27
2022-11-09T19:27:07.497Z,37.13
2022-11-09T19:30:29.004Z,38.55
2022-11-09T19:33:50.804Z,39.72
2022-11-09T19:37:11.641Z,36.97
2022-11-09T19:40:38.450Z,39.07
2022-11-09T19:44:01.220Z,56.07
2022-11-09T19:47:22.630Z,69.15
2022-11-09T19:50:49.796Z,50.72
2022-11-09T19:54:12.773Z,59.92
2022-11-09T19:57:34.066Z,54.10
2022-11-09T20:01:06.208Z,57.63
2022-11-09T20:04:28.405Z,54.05
2022-11-09T20:07:49.572Z,88.90
2022-11-09T20:11:12.889Z,77.28
2022-11-09T20:14:34.201Z,68.73
2022-11-09T20:17:55.284Z,49.43
2022-11-09T20:21:16.406Z,47.30
2022-11-09T20:24:37.648Z,48.92
2022-11-09T20:27:58.898Z,50.53
2022-11-09T20:31:20.999Z,49.23
2022-11-09T20:34:42.454Z,41.57
2022-11-09T20:38:03.881Z,46.75
2022-11-09T20:41:25.743Z,47.65
2022-11-09T20:44:46.716Z,42.20
2022-11-09T20:48:38.715Z,59.43
2022-11-09T20:51:49.579Z,55.30
2022-11-09T20:55:10.851Z,65.50
2022-11-09T20:58:35.301Z,62.13
2022-11-09T21:01:56.224Z,53.75
2022-11-09T21:05:17.697Z,53.13
2022-11-09T21:08:38.957Z,60.53
2022-11-09T21:12:18.401Z,55.08
2022-11-09T21:15:39.072Z,56.97
2022-11-09T21:18:59.974Z,49.08
2022-11-09T21:22:20.851Z,50.40
2022-11-09T21:26:02.567Z,43.57
2022-11-09T21:29:43.096Z,47.20
2022-11-09T21:33:04.371Z,47.78
2022-11-09T21:36:25.437Z,38.80
2022-11-09T21:39:46.425Z,33.23
2022-11-09T21:43:08.098Z,39.27
2022-11-09T21:46:29.245Z,54.40
2022-11-09T21:49:50.607Z,47.38
2022-11-09T21:53:11.754Z,46.95
2022-11-09T21:56:32.917Z,48.50
2022-11-09T21:59:54.186Z,41.23
2022-11-09T22:03:14.793Z,50.00
2022-11-09T22:06:39.533Z,47.83
2022-11-09T22:10:15.936Z,44.30
2022-11-09T22:13:55.593Z,51.00
2022-11-09T22:17:16.706Z,33.03
2022-11-09T22:20:55.496Z,44.60
2022-11-09T22:24:16.212Z,43.60
2022-11-09T22:27:36.966Z,65.18
2022-11-09T22:31:02.778Z,98.13
2022-11-09T22:34:23.737Z,96.87
2022-11-09T22:37:44.364Z,87.15
2022-11-09T22:41:07.414Z,43.53
2022-11-09T22:44:28.180Z,40.67
2022-11-09T22:47:49.066Z,40.37
2022-11-09T22:51:12.439Z,43.63
2022-11-09T22:54:33.535Z,43.15
2022-11-09T22:57:57.533Z,43.38
2022-11-09T23:01:20.440Z,40.88
2022-11-09T23:04:41.480Z,48.07
2022-11-09T23:08:02.376Z,41.97
2022-11-09T23:11:24.962Z,41.70
2022-11-09T23:15:03.938Z,48.20
2022-11-09T23:18:44.528Z,41.10
2022-11-09T23:22:05.628Z,41.10
2022-11-09T23:25:45.104Z,49.37
2022-11-09T23:29:06.643Z,48.83
2022-11-09T23:32:27.822Z,47.60
2022-11-09T23:35:48.737Z,46.55
2022-11-09T23:39:09.582Z,44.17
2022-11-09T23:42:30.558Z,47.60
2022-11-09T23:45:51.411Z,44.22
2022-11-09T23:49:12.443Z,52.28
2022-11-09T23:52:34.074Z,47.70
2022-11-09T23:55:59.124Z,47.00
2022-11-09T23:59:20.335Z,53.17
